Time;durP1;ratioP1;P1;durP2;ratioP2;P2;SDS_P1;SDS_P2;PMS_P1;PMS_P2;Temp;Humidity;BMP_temperature;BMP_pressure;BME280_temperature;BME280_humidity;BME280_pressure;Samples;Min_cycle;Max_cycle;Signal;HPM_P1;HPM_P2
2021/07/09 00:01:53;;;;;;;8.05;6.47;;;;;;;21.02;54.33;102090.56;4936407;28;114418;-79
2021/07/09 00:04:25;;;;;;;10.55;6.50;;;;;;;20.99;54.55;102096.16;4922577;28;112883;-79
2021/07/09 00:06:53;;;;;;;9.77;7.22;;;;;;;20.97;54.70;102081.94;4930998;28;122913;-79
2021/07/09 00:09:20;;;;;;;9.00;7.47;;;;;;;20.95;54.63;102094.66;4937746;28;124420;-79
2021/07/09 00:11:51;;;;;;;10.88;7.65;;;;;;;20.93;55.35;102091.19;4934314;28;113719;-79
2021/07/09 00:14:22;;;;;;;9.77;7.38;;;;;;;20.91;55.02;102077.84;4937502;28;113907;-79
2021/07/09 00:16:50;;;;;;;11.10;7.82;;;;;;;20.89;54.88;102085.16;4930301;28;123230;-78
2021/07/09 00:19:18;;;;;;;8.27;7.07;;;;;;;20.88;55.01;102085.25;4940014;28;123300;-79
2021/07/09 00:21:46;;;;;;;8.80;6.63;;;;;;;20.86;55.06;102081.81;4936839;28;114051;-79
2021/07/09 00:24:14;;;;;;;9.23;7.07;;;;;;;20.85;55.09;102082.78;4929472;28;114134;-78
2021/07/09 00:26:41;;;;;;;11.15;7.28;;;;;;;20.85;55.05;102098.94;4931887;28;124416;-79
2021/07/09 00:29:08;;;;;;;9.70;7.22;;;;;;;20.84;55.40;102086.44;4936068;28;123031;-79
2021/07/09 00:31:35;;;;;;;11.27;8.20;;;;;;;20.83;55.42;102079.31;4939833;28;114260;-79
2021/07/09 00:34:05;;;;;;;11.68;8.82;;;;;;;20.79;55.64;102079.56;4938486;28;114007;-79
2021/07/09 00:36:35;;;;;;;12.25;9.18;;;;;;;20.78;55.66;102083.19;4937245;28;123777;-79
2021/07/09 00:39:08;;;;;;;12.68;9.48;;;;;;;20.76;55.86;102076.22;4940784;28;124126;-79
2021/07/09 00:41:36;;;;;;;14.25;8.95;;;;;;;20.77;55.77;102076.06;4940324;28;113712;-80
2021/07/09 00:44:05;;;;;;;12.82;9.07;;;;;;;20.75;55.83;102086.09;4939494;28;113909;-78
2021/07/09 00:46:37;;;;;;;12.80;9.15;;;;;;;20.73;55.97;102079.09;4919175;28;123009;-78
2021/07/09 00:49:06;;;;;;;11.77;8.63;;;;;;;20.72;56.08;102078.25;4920902;28;122976;-78
2021/07/09 00:51:34;;;;;;;12.65;8.75;;;;;;;20.72;55.89;102078.25;4940655;28;114563;-79
2021/07/09 00:54:02;;;;;;;12.02;8.32;;;;;;;20.72;55.82;102075.56;4939921;28;114396;-79
2021/07/09 00:56:30;;;;;;;11.88;8.73;;;;;;;20.72;56.15;102072.84;4936811;28;123481;-80
2021/07/09 00:58:58;;;;;;;12.98;8.27;;;;;;;20.72;55.91;102072.84;4937679;28;123208;-78
2021/07/09 01:01:25;;;;;;;10.35;8.00;;;;;;;20.70;56.01;102074.78;4938237;28;113446;-79
2021/07/09 01:03:52;;;;;;;13.98;8.57;;;;;;;20.68;56.03;102082.13;4933797;28;113612;-79
2021/07/09 01:06:19;;;;;;;13.25;8.60;;;;;;;20.67;56.00;102077.69;4938406;28;124281;-78
2021/07/09 01:08:47;;;;;;;10.05;7.50;;;;;;;20.68;56.04;102083.94;4934865;28;122755;-77
2021/07/09 01:11:14;;;;;;;10.77;7.53;;;;;;;20.66;55.81;102084.03;4937859;28;114121;-78
2021/07/09 01:13:42;;;;;;;12.77;7.72;;;;;;;20.66;55.89;102078.63;4941173;28;112788;-78
2021/07/09 01:16:12;;;;;;;10.77;7.10;;;;;;;20.65;55.81;102082.31;4921958;28;123080;-78
2021/07/09 01:18:40;;;;;;;10.00;6.43;;;;;;;20.67;55.75;102085.75;4934344;28;124438;-79
2021/07/09 01:21:08;;;;;;;9.85;6.75;;;;;;;20.67;55.55;102080.38;4938860;28;114383;-77
2021/07/09 01:23:37;;;;;;;10.15;6.25;;;;;;;20.68;55.40;102082.13;4936572;28;113108;-79
2021/07/09 01:26:05;;;;;;;8.90;6.10;;;;;;;20.68;55.38;102090.19;4946887;28;124402;-79
2021/07/09 01:28:33;;;;;;;11.05;6.88;;;;;;;20.69;55.39;102085.66;4938315;28;123559;-78
2021/07/09 01:31:00;;;;;;;10.45;6.55;;;;;;;20.69;55.28;102086.50;4937548;28;113667;-79
2021/07/09 01:33:28;;;;;;;10.82;6.45;;;;;;;20.69;55.15;102094.59;4941426;28;114127;-78
2021/07/09 01:35:55;;;;;;;9.20;5.90;;;;;;;20.67;55.38;102096.53;4937290;28;123696;-78
2021/07/09 01:38:22;;;;;;;9.93;5.93;;;;;;;20.67;55.26;102096.53;4940718;28;124678;-80
2021/07/09 01:40:50;;;;;;;9.93;6.60;;;;;;;20.67;55.12;102096.53;4941582;28;114232;-80
2021/07/09 01:43:17;;;;;;;9.40;6.18;;;;;;;20.67;55.15;102093.00;4942219;28;113972;-79
2021/07/09 01:45:44;;;;;;;12.15;6.30;;;;;;;20.67;55.06;102084.91;4926591;28;123130;-78
2021/07/09 01:48:11;;;;;;;9.85;6.05;;;;;;;20.66;55.00;102094.78;4947197;28;123190;-77
2021/07/09 01:50:38;;;;;;;10.25;5.80;;;;;;;20.65;55.04;102093.09;4924461;28;113128;-78
2021/07/09 01:53:05;;;;;;;8.70;5.63;;;;;;;20.66;54.93;102089.41;4944419;28;114206;-78
2021/07/09 01:55:32;;;;;;;9.88;6.30;;;;;;;20.65;54.94;102087.69;4945288;28;123394;-78
2021/07/09 01:57:59;;;;;;;10.02;5.90;;;;;;;20.64;54.83;102091.34;4942471;28;124958;-80
2021/07/09 02:00:27;;;;;;;9.93;5.55;;;;;;;20.62;54.81;102087.91;4942717;28;117083;-78
2021/07/09 02:02:54;;;;;;;10.02;6.28;;;;;;;20.60;54.75;102079.06;4933835;28;114535;-78
2021/07/09 02:05:23;;;;;;;9.93;5.72;;;;;;;20.59;54.73;102082.72;4936816;28;124154;-78
2021/07/09 02:07:54;;;;;;;9.90;6.13;;;;;;;20.56;54.65;102082.91;4937252;28;123854;-79
2021/07/09 02:10:28;;;;;;;8.82;5.95;;;;;;;20.54;54.76;102077.63;4938404;28;116563;-77
2021/07/09 02:12:57;;;;;;;9.65;6.18;;;;;;;20.52;54.45;102081.38;4923196;28;113550;-78
2021/07/09 02:15:29;;;;;;;8.43;5.75;;;;;;;20.50;54.63;102083.31;4958977;28;123953;-78
2021/07/09 02:17:56;;;;;;;9.07;5.55;;;;;;;20.48;54.61;102090.66;4954614;28;124094;-78
2021/07/09 02:20:25;;;;;;;9.15;5.50;;;;;;;20.43;54.65;102082.84;4938110;28;114172;-78
2021/07/09 02:23:00;;;;;;;9.70;6.13;;;;;;;20.39;54.41;102082.19;4942807;28;113834;-78
2021/07/09 02:25:27;;;;;;;8.73;5.43;;;;;;;20.38;54.42;102091.25;4940436;28;124142;-78
2021/07/09 02:27:55;;;;;;;10.48;5.88;;;;;;;20.35;54.61;102091.44;4952028;28;123753;-78
2021/07/09 02:30:24;;;;;;;8.60;5.20;;;;;;;20.33;54.60;102088.00;4938624;28;112009;-77
2021/07/09 02:32:52;;;;;;;9.27;5.80;;;;;;;20.30;54.76;102080.13;4953356;28;112993;-77
2021/07/09 02:35:22;;;;;;;10.15;6.32;;;;;;;20.29;54.79;102080.25;4955230;28;124962;-77
2021/07/09 02:37:50;;;;;;;9.52;5.65;;;;;;;20.27;54.68;102080.34;4949961;28;122441;-77
2021/07/09 02:40:20;;;;;;;9.93;6.45;;;;;;;20.24;54.96;102080.53;4939765;28;114555;-77
2021/07/09 02:42:52;;;;;;;8.80;5.78;;;;;;;20.22;54.84;102080.63;4935007;28;113968;-76
2021/07/09 02:45:21;;;;;;;9.93;6.03;;;;;;;20.21;55.07;102075.34;4939211;28;124056;-76
2021/07/09 02:47:50;;;;;;;10.77;6.20;;;;;;;20.20;54.84;102076.31;4938689;28;124829;-76
2021/07/09 02:50:20;;;;;;;10.50;5.55;;;;;;;20.19;55.08;102074.59;4935098;28;115437;-77
2021/07/09 02:52:48;;;;;;;8.82;5.95;;;;;;;20.18;55.00;102064.81;4936851;28;114562;-77
2021/07/09 02:55:17;;;;;;;9.02;5.80;;;;;;;20.17;55.16;102060.38;4941596;28;124439;-76
2021/07/09 02:57:44;;;;;;;10.68;6.03;;;;;;;20.14;55.07;102065.97;4924933;28;121851;-77
2021/07/09 03:00:14;;;;;;;11.50;6.30;;;;;;;20.11;54.99;102066.16;4943984;28;114480;-77
2021/07/09 03:02:42;;;;;;;9.93;6.72;;;;;;;20.09;54.97;102070.78;4940185;28;115028;-77
2021/07/09 03:05:10;;;;;;;11.32;6.57;;;;;;;20.08;55.07;102071.75;4941131;28;124088;-77
2021/07/09 03:07:38;;;;;;;9.75;6.22;;;;;;;20.06;55.23;102068.28;4946479;28;123405;-77
2021/07/09 03:10:07;;;;;;;12.57;6.55;;;;;;;20.05;54.97;102066.59;4947723;28;112423;-77
2021/07/09 03:12:35;;;;;;;12.80;6.78;;;;;;;20.02;54.82;102067.63;4952545;28;113740;-77
2021/07/09 03:15:04;;;;;;;10.40;6.35;;;;;;;20.00;55.03;102070.44;4950449;28;123955;-78
2021/07/09 03:17:31;;;;;;;12.13;6.32;;;;;;;19.99;55.20;102063.31;4941421;28;123793;-77
2021/07/09 03:19:58;;;;;;;10.23;5.85;;;;;;;19.97;55.04;102059.88;4931911;28;114373;-77
2021/07/09 03:22:25;;;;;;;10.55;6.18;;;;;;;19.94;55.11;102057.38;4947790;28;114007;-79
2021/07/09 03:24:52;;;;;;;11.80;6.78;;;;;;;19.90;54.90;102058.53;4938387;28;124134;-79
2021/07/09 03:27:19;;;;;;;11.55;6.70;;;;;;;19.89;55.02;102061.31;4915072;28;123008;-79
2021/07/09 03:29:46;;;;;;;10.60;6.55;;;;;;;19.87;55.21;102058.72;4935664;28;112577;-79
2021/07/09 03:32:13;;;;;;;11.27;6.55;;;;;;;19.84;55.20;102053.56;4935663;28;113001;-79
2021/07/09 03:34:40;;;;;;;11.35;6.50;;;;;;;19.82;55.19;102066.25;4938796;28;123006;-79
2021/07/09 03:37:07;;;;;;;12.50;7.00;;;;;;;19.79;55.15;102055.69;4937576;28;122787;-78
2021/07/09 03:39:34;;;;;;;9.88;6.18;;;;;;;19.76;55.07;102056.75;4940969;28;114941;-78
2021/07/09 03:42:01;;;;;;;11.30;6.43;;;;;;;19.75;55.31;102059.53;4936472;28;113944;-79
2021/07/09 03:44:28;;;;;;;11.77;6.90;;;;;;;19.72;55.60;102059.69;4942526;28;124040;-79
2021/07/09 03:46:55;;;;;;;12.20;7.03;;;;;;;19.71;55.51;102058.00;4938442;28;123540;-79
2021/07/09 03:49:22;;;;;;;11.70;6.55;;;;;;;19.70;55.51;102067.84;4935305;28;114206;-78
2021/07/09 03:51:51;;;;;;;10.45;6.50;;;;;;;19.71;55.88;102068.75;4937403;28;112782;-79
2021/07/09 03:54:18;;;;;;;12.93;6.68;;;;;;;19.70;55.76;102064.31;4937605;28;124051;-79
2021/07/09 03:56:45;;;;;;;10.63;6.80;;;;;;;19.69;55.67;102062.59;4944703;28;124054;-80
2021/07/09 03:59:12;;;;;;;11.27;7.05;;;;;;;19.69;55.75;102070.66;4941351;28;113597;-80
2021/07/09 04:01:39;;;;;;;11.32;6.97;;;;;;;19.70;55.75;102075.06;4921313;28;113045;-79
2021/07/09 04:04:06;;;;;;;11.68;7.28;;;;;;;19.69;55.72;102073.34;4939519;28;123105;-79
2021/07/09 04:06:36;;;;;;;13.02;6.97;;;;;;;19.71;55.94;102068.75;4940907;28;123528;-80
2021/07/09 04:09:03;;;;;;;11.48;7.15;;;;;;;19.71;55.63;102068.75;4961804;28;113411;-80
2021/07/09 04:11:30;;;;;;;10.77;7.00;;;;;;;19.71;55.67;102068.75;4946832;28;113295;-80
2021/07/09 04:13:57;;;;;;;11.88;6.78;;;;;;;19.68;55.81;102079.69;4945754;28;124428;-78
2021/07/09 04:16:24;;;;;;;12.95;7.53;;;;;;;19.68;55.72;102085.06;4952001;28;124069;-80
2021/07/09 04:18:52;;;;;;;15.70;8.10;;;;;;;19.65;55.83;102081.59;4946697;28;114055;-79
2021/07/09 04:21:19;;;;;;;13.05;7.65;;;;;;;19.59;55.78;102082.00;4943936;28;113130;-79
2021/07/09 04:23:47;;;;;;;14.15;7.88;;;;;;;19.55;55.88;102074.22;4941502;28;122705;-80
2021/07/09 04:26:15;;;;;;;14.10;7.90;;;;;;;19.53;56.13;102074.31;4941303;28;121802;-79
2021/07/09 04:28:42;;;;;;;13.00;8.15;;;;;;;19.53;56.04;102077.00;4943799;28;115386;-77
2021/07/09 04:31:09;;;;;;;14.73;8.45;;;;;;;19.51;55.96;102084.28;4941205;28;115162;-78
2021/07/09 04:33:36;;;;;;;15.57;7.75;;;;;;;19.52;56.13;102086.03;4945198;28;124100;-79
2021/07/09 04:36:03;;;;;;;14.52;8.10;;;;;;;19.53;56.28;102084.19;4947559;28;123789;-80
2021/07/09 04:38:30;;;;;;;13.55;8.05;;;;;;;19.52;56.06;102083.34;4947293;28;114399;-79
2021/07/09 04:40:58;;;;;;;12.85;8.13;;;;;;;19.53;56.19;102085.06;4951962;28;113565;-80
2021/07/09 04:43:25;;;;;;;12.00;7.30;;;;;;;19.53;56.30;102086.88;4960465;28;123396;-79
2021/07/09 04:45:52;;;;;;;12.80;7.45;;;;;;;19.52;56.35;102091.41;4951218;28;123211;-81
2021/07/09 04:48:19;;;;;;;13.23;7.78;;;;;;;19.51;56.21;102094.19;4941989;28;113804;-79
2021/07/09 04:50:46;;;;;;;15.68;8.52;;;;;;;19.49;56.23;102091.59;4946200;28;113957;-80
2021/07/09 04:53:13;;;;;;;13.80;8.32;;;;;;;19.49;56.36;102094.28;4939535;28;123562;-80
2021/07/09 04:55:40;;;;;;;12.05;7.45;;;;;;;19.50;56.16;102087.09;4940781;28;122941;-80
2021/07/09 04:58:07;;;;;;;15.75;8.60;;;;;;;19.50;56.35;102087.09;4948151;28;114247;-80
2021/07/09 05:00:34;;;;;;;13.70;6.93;;;;;;;19.49;56.26;102080.84;4950403;28;112941;-79
2021/07/09 05:03:01;;;;;;;13.40;8.20;;;;;;;19.49;56.36;102075.47;4947064;28;124436;-80
2021/07/09 05:05:28;;;;;;;14.45;8.48;;;;;;;19.51;56.46;102089.66;4947631;28;123969;-79
2021/07/09 05:07:55;;;;;;;14.15;8.30;;;;;;;19.52;56.40;102077.97;4953104;28;114851;-80
2021/07/09 05:10:22;;;;;;;12.77;7.50;;;;;;;19.53;56.33;102079.69;4945962;28;113935;-80
2021/07/09 05:12:49;;;;;;;15.10;8.60;;;;;;;19.54;56.33;102089.47;4948610;28;124516;-80
2021/07/09 05:15:20;;;;;;;16.10;8.55;;;;;;;19.56;56.50;102098.31;4952471;28;124446;-80
2021/07/09 05:17:47;;;;;;;15.15;8.65;;;;;;;19.58;56.47;102091.00;4951105;28;115603;-81
2021/07/09 05:20:14;;;;;;;15.07;7.88;;;;;;;19.61;56.39;102093.50;4952978;28;114880;-80
2021/07/09 05:22:42;;;;;;;15.90;8.82;;;;;;;19.65;56.51;102086.97;4943936;28;124671;-80
2021/07/09 05:25:10;;;;;;;13.65;8.20;;;;;;;19.69;56.38;102086.78;4947777;28;123864;-80
2021/07/09 05:27:37;;;;;;;13.98;8.27;;;;;;;19.71;56.62;102090.25;4953311;28;114804;-80
2021/07/09 05:30:05;;;;;;;13.85;8.02;;;;;;;19.74;56.32;102088.25;4949544;28;111758;-79
2021/07/09 05:32:34;;;;;;;15.30;8.45;;;;;;;19.80;56.59;102078.94;4948011;28;124710;-80
2021/07/09 05:35:05;;;;;;;13.98;8.10;;;;;;;19.86;56.52;102078.53;4951334;28;123419;-79
2021/07/09 05:37:33;;;;;;;13.00;7.72;;;;;;;19.91;56.46;102081.81;4955477;28;112719;-79
2021/07/09 05:40:00;;;;;;;11.50;7.18;;;;;;;19.96;56.40;102085.03;4953431;28;114188;-79
2021/07/09 05:42:27;;;;;;;14.13;8.40;;;;;;;20.02;56.23;102084.66;4950041;28;124476;-79
2021/07/09 05:44:54;;;;;;;13.80;8.40;;;;;;;20.11;56.26;102098.44;4951344;28;124147;-80
2021/07/09 05:47:21;;;;;;;13.55;7.68;;;;;;;20.17;56.02;102093.53;4953947;28;113921;-80
2021/07/09 05:49:48;;;;;;;14.13;7.90;;;;;;;20.26;56.16;102097.44;4954702;28;113669;-79
2021/07/09 05:52:15;;;;;;;11.60;7.78;;;;;;;20.32;56.04;102094.31;4950482;28;122884;-80
2021/07/09 05:54:42;;;;;;;16.20;8.20;;;;;;;20.39;55.83;102098.34;4954533;28;122976;-79
2021/07/09 05:57:09;;;;;;;15.52;8.63;;;;;;;20.43;56.00;102105.25;4946952;28;113215;-80
2021/07/09 05:59:38;;;;;;;14.48;8.07;;;;;;;20.50;56.04;102105.72;4953269;28;114056;-80
2021/07/09 06:02:05;;;;;;;13.60;8.00;;;;;;;20.58;55.77;102102.50;4947350;28;123667;-80
2021/07/09 06:04:32;;;;;;;12.27;8.20;;;;;;;20.63;55.67;102100.41;4949086;28;122545;-80
2021/07/09 06:06:59;;;;;;;13.65;8.02;;;;;;;20.69;55.58;102094.59;4944771;28;114530;-80
2021/07/09 06:09:26;;;;;;;13.35;7.88;;;;;;;20.73;55.48;102096.09;4944214;28;114792;-80
2021/07/09 06:11:54;;;;;;;15.48;8.10;;;;;;;20.80;55.50;102101.94;4926187;28;122722;-80
2021/07/09 06:14:21;;;;;;;16.25;8.80;;;;;;;20.87;55.40;102094.28;4944689;28;124025;-79
2021/07/09 06:16:48;;;;;;;12.10;7.93;;;;;;;20.97;55.24;102103.47;4942224;28;114361;-78
2021/07/09 06:19:15;;;;;;;14.35;8.02;;;;;;;21.06;55.32;102097.47;4941939;28;114006;-79
2021/07/09 06:21:42;;;;;;;13.20;7.80;;;;;;;21.13;55.00;102093.34;4942480;28;124279;-80
2021/07/09 06:24:09;;;;;;;13.32;8.02;;;;;;;21.19;54.83;102098.31;4944303;28;123786;-80
2021/07/09 06:26:37;;;;;;;12.73;8.15;;;;;;;21.28;54.99;102104.88;4942378;28;114377;-77
2021/07/09 06:29:04;;;;;;;14.27;8.50;;;;;;;21.39;54.92;102104.13;4938261;28;114293;-79
2021/07/09 06:31:31;;;;;;;13.30;8.13;;;;;;;21.52;54.94;102099.63;4942554;28;123705;-77
2021/07/09 06:33:58;;;;;;;13.70;7.75;;;;;;;21.67;55.07;102110.28;4940971;28;123862;-77
2021/07/09 06:36:25;;;;;;;12.73;7.97;;;;;;;21.82;54.56;102106.47;4937894;28;114646;-78
2021/07/09 06:38:52;;;;;;;14.10;7.93;;;;;;;21.97;54.31;102116.16;4947512;28;114205;-78
2021/07/09 06:41:20;;;;;;;12.45;7.40;;;;;;;22.08;54.19;102107.28;4942617;28;124216;-80
2021/07/09 06:43:47;;;;;;;13.00;8.02;;;;;;;22.21;53.81;102106.34;4936806;28;122690;-78
2021/07/09 06:46:14;;;;;;;13.43;7.63;;;;;;;22.34;53.72;102113.47;4941295;28;114555;-78
2021/07/09 06:48:41;;;;;;;13.18;7.38;;;;;;;22.50;53.53;102109.59;4932289;28;113226;-78
2021/07/09 06:51:08;;;;;;;12.40;7.88;;;;;;;22.65;53.30;102108.44;4932560;28;125111;-78
2021/07/09 06:53:35;;;;;;;12.48;7.97;;;;;;;22.80;52.89;102109.09;4940601;28;124021;-78
2021/07/09 06:56:04;;;;;;;12.70;7.57;;;;;;;22.94;52.82;102110.72;4939376;28;114890;-78
2021/07/09 06:58:31;;;;;;;12.15;7.57;;;;;;;23.07;52.42;102111.53;4940693;28;114557;-78
2021/07/09 07:00:58;;;;;;;12.30;7.65;;;;;;;;;;4945721;28;124102;-78
2021/07/09 07:03:25;;;;;;;12.20;7.43;;;;;;;23.34;52.50;102113.06;4939912;28;122907;-79
2021/07/09 07:05:52;;;;;;;10.75;7.07;;;;;;;23.49;51.98;102111.00;4940298;28;114354;-78
2021/07/09 07:08:23;;;;;;;12.93;7.18;;;;;;;23.63;51.81;102113.44;4943771;28;114454;-78
2021/07/09 07:10:52;;;;;;;11.65;7.13;;;;;;;23.78;51.06;102110.47;4941779;28;123482;-78
2021/07/09 07:13:20;;;;;;;11.30;7.38;;;;;;;23.88;50.78;102117.75;4950508;28;123763;-78
2021/07/09 07:15:48;;;;;;;10.40;6.82;;;;;;;23.97;50.67;102109.88;4946941;28;114783;-78
2021/07/09 07:18:16;;;;;;;10.38;7.13;;;;;;;24.06;50.29;102103.69;4950908;28;113047;-78
2021/07/09 07:20:45;;;;;;;11.35;7.55;;;;;;;24.15;50.57;102108.34;4952126;28;123825;-80
2021/07/09 07:23:17;;;;;;;12.07;7.43;;;;;;;24.29;50.31;102105.34;4954529;28;123925;-78
2021/07/09 07:25:51;;;;;;;10.73;7.30;;;;;;;24.43;49.97;102108.75;4958424;22;113485;-68
2021/07/09 07:28:21;;;;;;;11.25;6.88;;;;;;;24.54;49.65;102114.16;4931937;28;113900;-63
2021/07/09 07:31:10;;;;;;;10.90;7.40;;;;;;;24.66;49.27;102113.13;4921367;28;124727;-63
2021/07/09 07:33:39;;;;;;;10.07;6.95;;;;;;;24.73;48.88;102112.59;4922313;28;124756;-63
2021/07/09 07:36:14;;;;;;;9.70;6.18;;;;;;;24.80;48.67;102111.09;4907016;28;113201;-63
2021/07/09 07:38:47;;;;;;;10.05;5.75;;;;;;;24.88;48.63;102105.84;4916653;28;114025;-63
2021/07/09 07:41:16;;;;;;;9.25;6.10;;;;;;;25.00;47.93;102110.22;4923950;28;124181;-63
2021/07/09 07:43:43;;;;;;;9.02;5.45;;;;;;;25.09;47.58;102114.00;4917677;28;124276;-63
2021/07/09 07:46:13;;;;;;;8.70;5.70;;;;;;;25.15;47.60;102107.19;4919832;28;115573;-63
2021/07/09 07:48:41;;;;;;;9.77;4.78;;;;;;;25.22;47.15;102102.91;4912711;28;115729;-64
2021/07/09 07:51:08;;;;;;;7.75;5.45;;;;;;;25.30;47.04;102103.16;4912548;28;123297;-63
2021/07/09 07:53:36;;;;;;;9.75;5.75;;;;;;;25.37;46.85;102107.06;4917188;28;123948;-64
2021/07/09 07:56:05;;;;;;;7.93;5.28;;;;;;;25.43;46.73;102111.94;4922316;28;115288;-63
2021/07/09 07:58:32;;;;;;;10.18;5.88;;;;;;;25.51;47.11;102108.53;4912402;28;112956;-63
2021/07/09 08:01:00;;;;;;;8.98;5.85;;;;;;;25.58;46.95;102108.84;4898141;28;123462;-63
2021/07/09 08:03:27;;;;;;;9.88;6.15;;;;;;;25.69;46.92;102111.44;4926436;28;123663;-63
2021/07/09 08:05:54;;;;;;;10.73;6.90;;;;;;;25.74;47.13;102103.75;4922376;28;114469;-63
2021/07/09 08:08:22;;;;;;;8.35;5.53;;;;;;;25.82;47.35;102112.09;4927684;28;114060;-63
2021/07/09 08:10:49;;;;;;;8.13;5.32;;;;;;;25.91;47.02;102104.09;4915740;28;123227;-63
2021/07/09 08:13:16;;;;;;;9.68;5.30;;;;;;;26.00;46.60;102111.44;4930560;28;124011;-63
2021/07/09 08:15:44;;;;;;;8.13;4.78;;;;;;;26.09;46.13;102118.75;4927893;28;114965;-64
2021/07/09 08:18:11;;;;;;;8.23;5.15;;;;;;;26.14;45.96;102105.59;4921774;28;113775;-63
2021/07/09 08:20:39;;;;;;;8.13;4.78;;;;;;;26.19;45.72;102119.63;4920307;28;124398;-62
2021/07/09 08:23:07;;;;;;;7.28;4.78;;;;;;;26.23;46.00;102107.47;4930243;28;124186;-63
2021/07/09 08:25:34;;;;;;;10.95;5.53;;;;;;;26.30;46.17;102109.66;4931728;28;115088;-63
2021/07/09 08:28:02;;;;;;;8.63;5.85;;;;;;;26.37;45.84;102110.75;4933539;28;114346;-63
2021/07/09 08:30:30;;;;;;;10.93;6.07;;;;;;;26.45;45.80;102113.66;4930323;28;124360;-64
2021/07/09 08:32:57;;;;;;;9.93;6.00;;;;;;;26.46;45.91;102109.91;4916442;28;124241;-63
2021/07/09 08:35:24;;;;;;;10.65;6.80;;;;;;;26.52;45.56;102109.38;4931369;28;115926;-63
2021/07/09 08:37:52;;;;;;;10.13;5.57;;;;;;;26.58;45.35;102103.34;4936029;28;115736;-64
2021/07/09 08:40:19;;;;;;;11.15;6.15;;;;;;;26.63;45.18;102110.25;4935586;28;124096;-62
2021/07/09 08:42:47;;;;;;;9.20;5.10;;;;;;;26.69;44.86;102115.09;4927489;28;125450;-63
2021/07/09 08:45:14;;;;;;;7.63;4.75;;;;;;;26.74;45.03;102107.38;4929802;28;114962;-62
2021/07/09 08:47:43;;;;;;;7.70;4.47;;;;;;;26.76;44.86;102098.06;4915270;28;114291;-62
2021/07/09 08:50:11;;;;;;;7.00;5.05;;;;;;;26.75;44.75;102103.66;4928655;28;124460;-62
2021/07/09 08:52:42;;;;;;;7.78;5.00;;;;;;;26.73;44.91;102100.22;4934832;28;124813;-62
2021/07/09 08:55:12;;;;;;;6.82;4.78;;;;;;;26.71;44.88;102110.38;4933494;28;114541;-62
2021/07/09 08:57:41;;;;;;;7.03;5.03;;;;;;;26.70;44.55;102105.94;4930520;28;114937;-62
2021/07/09 09:00:31;;;;;;;8.32;4.95;;;;;;;26.70;45.32;102095.94;4925135;28;124455;-62
2021/07/09 09:03:00;;;;;;;8.02;5.47;;;;;;;26.77;45.18;102096.22;4918080;28;124229;-62
2021/07/09 09:05:28;;;;;;;7.47;4.88;;;;;;;26.82;44.84;102099.34;4909989;28;115508;-62
2021/07/09 09:08:00;;;;;;;7.05;5.05;;;;;;;26.85;44.73;102088.19;4926977;28;113828;-62
2021/07/09 09:10:36;;;;;;;8.55;5.05;;;;;;;26.87;44.53;102097.06;4912257;28;122151;-62
2021/07/09 09:13:26;;;;;;;9.05;5.00;;;;;;;26.87;44.75;102091.63;4920906;28;124285;-62
2021/07/09 09:16:03;;;;;;;8.13;5.78;;;;;;;26.93;44.54;102096.47;4919572;28;114343;-62
2021/07/09 09:18:38;;;;;;;9.73;5.13;;;;;;;27.00;45.13;102091.31;4936583;28;114296;-63
2021/07/09 09:21:18;;;;;;;8.30;5.90;;;;;;;27.08;44.91;102091.41;4919582;28;123949;-63
2021/07/09 09:23:51;;;;;;;7.38;5.40;;;;;;;27.17;44.62;102089.69;4909992;28;123418;-63
2021/07/09 09:26:50;;;;;;;9.35;6.47;;;;;;;27.29;44.40;102083.06;4914359;28;114523;-63
2021/07/09 09:29:27;;;;;;;8.80;6.68;;;;;;;27.43;44.55;102086.34;4922451;28;115076;-63
2021/07/09 09:31:56;;;;;;;10.57;6.47;;;;;;;27.50;44.57;102087.44;4916347;28;124818;-63
2021/07/09 09:34:40;;;;;;;9.65;6.07;;;;;;;27.53;44.60;102087.16;4922823;28;124052;-63
2021/07/09 09:37:09;;;;;;;8.90;5.60;;;;;;;27.57;43.84;102083.13;4904127;28;115593;-63
2021/07/09 09:39:39;;;;;;;8.80;5.75;;;;;;;27.55;43.90;102079.69;4927543;28;113832;-63
2021/07/09 09:42:17;;;;;;;10.27;6.90;;;;;;;27.56;44.08;102082.25;4911978;28;124102;-63
2021/07/09 09:44:47;;;;;;;12.02;7.28;;;;;;;27.60;43.99;102077.38;4905159;28;124122;-63
2021/07/09 09:47:19;;;;;;;9.93;7.25;;;;;;;27.61;43.67;102073.63;4919118;28;114289;-64
2021/07/09 09:50:00;;;;;;;12.23;6.72;;;;;;;27.63;43.94;102071.63;4922136;28;113790;-63
2021/07/09 09:52:41;;;;;;;10.00;5.90;;;;;;;27.60;43.76;102082.81;4917815;28;124915;-63
2021/07/09 09:55:13;;;;;;;9.98;6.30;;;;;;;27.52;43.49;102074.53;4927683;28;124183;-64
2021/07/09 09:57:42;;;;;;;9.98;6.10;;;;;;;27.46;43.92;102075.16;4917697;28;113451;-63
2021/07/09 10:00:27;;;;;;;8.45;6.25;;;;;;;27.46;43.84;102070.56;4933187;28;114417;-63
2021/07/09 10:03:14;;;;;;;10.75;6.50;;;;;;;27.53;44.24;102071.66;4912691;28;122877;-63
2021/07/09 10:05:43;;;;;;;8.98;6.00;;;;;;;27.66;44.67;102065.03;4929263;28;124667;-63
2021/07/09 10:08:12;;;;;;;9.68;6.55;;;;;;;27.77;44.29;102068.41;4935345;28;114279;-63
2021/07/09 10:10:42;;;;;;;9.20;6.72;;;;;;;27.84;43.88;102070.50;4918234;28;113860;-63
2021/07/09 10:13:15;;;;;;;11.23;6.40;;;;;;;27.84;43.74;102067.78;4918037;28;124778;-63
2021/07/09 10:15:44;;;;;;;10.27;6.75;;;;;;;27.82;43.05;102072.53;4914512;28;124190;-63
2021/07/09 10:18:13;;;;;;;9.43;6.05;;;;;;;27.81;43.77;102062.66;4926096;28;115524;-63
2021/07/09 10:20:46;;;;;;;10.18;7.13;;;;;;;27.85;43.88;102064.91;4926021;28;115060;-63
2021/07/09 10:23:15;;;;;;;11.20;6.70;;;;;;;27.88;43.76;102069.22;4917366;28;123470;-63
2021/07/09 10:25:46;;;;;;;8.98;6.22;;;;;;;27.93;43.80;102056.00;4933011;28;123979;-63
2021/07/09 10:28:19;;;;;;;9.00;5.70;;;;;;;27.98;43.39;102059.13;4935046;28;114402;-63
2021/07/09 10:30:46;;;;;;;9.05;5.43;;;;;;;27.99;43.29;102055.41;4932691;28;113935;-63
2021/07/09 10:33:33;;;;;;;7.18;4.78;;;;;;;27.92;42.80;102054.31;4934609;28;124329;-63
2021/07/09 10:36:27;;;;;;;8.68;5.10;;;;;;;27.85;42.39;102055.88;4919917;28;123866;-63
2021/07/09 10:38:55;;;;;;;9.05;6.28;;;;;;;27.80;42.62;102052.75;4900047;28;113313;-63
2021/07/09 10:41:24;;;;;;;9.77;6.57;;;;;;;27.79;43.29;102051.91;4927115;28;113762;-63
2021/07/09 10:44:15;;;;;;;9.77;6.28;;;;;;;27.83;43.12;102049.75;4920045;28;124380;-63
2021/07/09 10:46:45;;;;;;;11.77;6.50;;;;;;;27.87;43.25;102056.59;4925298;28;123974;-63
2021/07/09 10:49:50;;;;;;;12.57;6.32;;;;;;;27.93;43.42;102045.97;4909317;28;113249;-63
2021/07/09 10:52:50;;;;;;;11.52;6.63;;;;;;;28.05;43.76;102041.16;4906054;28;114166;-63
2021/07/09 10:55:29;;;;;;;11.55;6.60;;;;;;;28.18;43.03;102048.06;4929841;28;123889;-63
2021/07/09 10:58:17;;;;;;;10.02;6.90;;;;;;;28.19;43.05;102055.25;4926074;28;124632;-63
2021/07/09 11:00:55;;;;;;;9.95;6.68;;;;;;;28.11;42.55;102048.69;4931931;28;114569;-63
2021/07/09 11:03:29;;;;;;;9.60;5.75;;;;;;;28.00;42.50;102051.66;4908071;28;114308;-63
2021/07/09 11:06:02;;;;;;;7.20;5.53;;;;;;;27.92;42.24;102043.41;4933046;28;124011;-62
2021/07/09 11:08:37;;;;;;;10.63;6.93;;;;;;;27.87;42.27;102056.59;4936092;28;97016;-63
2021/07/09 11:11:29;;;;;;;10.82;7.13;;;;;;;27.77;42.48;102054.78;4931161;28;115606;-62
2021/07/09 11:14:06;;;;;;;10.27;7.53;;;;;;;27.75;43.11;102043.19;4914689;28;115737;-63
2021/07/09 11:16:58;;;;;;;11.50;7.13;;;;;;;27.73;42.47;102045.22;4908267;28;124132;-63
2021/07/09 11:19:34;;;;;;;11.88;7.15;;;;;;;27.65;43.10;102042.41;4925963;28;124390;-63
2021/07/09 11:22:09;;;;;;;10.23;7.28;;;;;;;27.64;42.68;102040.69;4919556;28;114202;-62
2021/07/09 11:24:51;;;;;;;10.68;7.03;;;;;;;27.65;42.95;102042.41;4930551;28;114252;-63